Skip Navigation LinksHome page > Weather > Current weather Skip Navigation Links

Current Weather

Central Park, New York

For information only: do not use for flight planning or navigation.
Latest weather
Observation time Monday, December 5, 2016 2:51 AM EST
Local time Monday, December 5, 2016 3:25 AM EST
Flight conditions Low Instrument Meteorological Conditions
Winds
Wind direction East-Northeast (60°)
Wind speed 5 mph
Visibility 10 mi.
Present weather light rain, light rain, mist
Sky condition
Ceiling 400 ft. overcast
Cloud layer overcast 400 ft.
Cloud layer broken clouds 3,400 ft.
Cloud layer overcast 4,500 ft.
Temperature 41°F
Dewpoint 29°F
Altimeter 30.11 in.Hg
Precipitation
Rain began 2:46 AM
Precipitation last hour trace
Derived measurements
Relative humidity 62%
Wind chill 38°F
Density altitude -1184 ft.
Sea-level pressure 30.08 in.Hg
Remarks
Special weather observation.
Fully automated report.
System requires maintenance.
Automated weather observing station with precipitation discriminator.
METAR KNYC 050751Z AUTO 06004KT 10SM -RA BKN034 OVC045 05/M02 A3011 RMK AO2 RAB46 SLP187 P0000 T00501017 $ SPUS99 KWBC 050753 SPECI KAPG 050743Z AUTO 17006KT 4SM R22/4500FT -RA BR OVC004 04/04 A3005 RMK AO2

Settings

Location code

InnerDrive.Weather 4.0.6144.1 Release CLR 4.0.30319.34209
Copyright ©2015 Inner Drive Technology. All rights reserved. Portions Copyright ©1986-2015 David Braverman.

Find weather

Site navigation


Skip Navigation Links

Place info

Page info

PayPal - The safer, easier way to pay online!

Return home.

Copyright ©2016 Inner Drive Technology. Purveyors of fine, hand-crafted computer software. Page printed 2016-12-05T08:25:49 UTC.